Latest Weather Observations for Lake Julius

IDQ60801

Issued at 9:02 pm EST Saturday 25 February 2017 (issued every 30 minutes, with the page automatically refreshed every 10 minutes)

About weather observations | Map of weather stations | Latest weather observations for QLD | Other Formats
Station Details ID: 029181 Name: LAKE JULIUS AWS Lat: -20.12 Lon: 139.73 Height: 237.0 m
Data from the previous 72 hours. | See also: Recent months at Lake Julius
Date/Time
EST
Temp
°C
App
Temp
°C
Dew
Point
°C
Rel
Hum
%
Delta-T
°C
Wind Press
QNH
hPa
Press
MSL
hPa
Rain since
9am
mm
Dir  Spd
km/h
Gust
km/h
Spd
kts
Gust
kts
25/09:00pm 30.8 33.6 18.8 48 7.8 NNE 2 2 1 1 - - 0.0
25/08:30pm 31.4 33.6 18.4 46 8.5 NE 4 6 2 3 - - 0.0
25/08:00pm 31.8 33.3 17.7 43 9.1 ENE 6 9 3 5 - - 0.0
25/07:30pm 32.9 34.3 16.3 37 10.5 NE 4 6 2 3 - - 0.0
25/07:00pm 34.0 34.1 15.5 33 11.7 ENE 9 15 5 8 - - 0.0
25/06:30pm 34.6 34.7 15.5 32 12.1 ENE 9 15 5 8 - - 0.0
25/06:00pm 35.5 35.9 15.3 30 12.8 E 7 13 4 7 - - 0.0
25/05:30pm 36.0 35.0 13.5 26 13.9 ESE 11 17 6 9 - - 0.0
25/05:00pm 36.1 35.0 13.0 25 14.2 E 11 26 6 14 - - 0.0
25/04:30pm 36.6 36.2 15.1 27 13.6 SSE 11 30 6 16 - - 0.0
25/04:00pm 36.5 35.3 15.0 27 13.6 NE 15 22 8 12 - - 0.0
25/03:30pm 36.5 36.4 16.1 29 13.1 ENE 11 20 6 11 - - 0.0
25/03:00pm 36.4 36.1 15.5 29 13.3 ESE 11 22 6 12 - - 0.0
25/02:30pm 36.2 35.3 14.8 28 13.5 E 13 22 7 12 - - 0.0
25/02:00pm 36.6 36.8 15.7 29 13.3 E 9 20 5 11 - - 0.0
25/01:30pm 36.4 36.1 15.5 29 13.3 ESE 11 20 6 11 - - 0.0
25/01:00pm 36.3 36.4 15.4 28 13.3 ENE 9 22 5 12 - - 0.0
25/12:30pm 35.8 35.3 16.0 30 12.6 ESE 13 24 7 13 - - 0.0
25/12:00pm 35.4 34.3 15.2 30 12.7 ESE 15 22 8 12 - - 0.0
25/11:30am 35.0 35.2 15.8 31 12.2 ESE 9 20 5 11 - - 0.0
25/11:00am 34.2 34.7 15.6 32 11.8 SSE 7 17 4 9 - - 0.0
25/10:30am 33.6 34.6 17.7 38 10.3 ESE 9 22 5 12 - - 0.0
25/10:00am 31.4 34.7 20.7 53 7.2 SSW 4 7 2 4 - - 0.0
25/09:30am 29.1 33.4 21.1 62 5.4 CALM 0 0 0 0 - - 0.0
25/09:00am 28.5 31.7 21.3 65 4.8 SSW 6 7 3 4 - - 0.0
25/08:30am 28.0 31.7 21.5 67 4.4 SSW 4 6 2 3 - - 0.0
25/08:00am 26.6 30.6 22.0 76 3.1 SSW 4 4 2 2 - - 0.0
25/07:30am 25.7 30.5 22.2 81 2.4 CALM 0 4 0 2 - - 0.0
25/07:00am 24.6 28.9 21.1 81 2.3 CALM 0 0 0 0 - - 0.0
25/06:30am 24.7 28.8 20.8 79 2.6 CALM 0 0 0 0 - - 0.0
25/06:00am 25.1 29.1 20.6 76 3.0 CALM 0 0 0 0 - - 0.0
25/05:30am 25.6 29.6 20.6 74 3.3 CALM 0 0 0 0 - - 0.0
25/05:00am 26.0 29.6 20.6 72 3.6 WSW 2 4 1 2 - - 0.0
25/04:30am 26.3 29.5 20.4 70 3.9 SW 4 6 2 3 - - 0.0
25/04:00am 26.4 29.3 20.7 71 3.8 SW 6 7 3 4 - - 0.0
25/03:30am 26.8 29.8 20.9 70 3.9 SSW 6 9 3 5 - - 0.0
25/03:00am 27.4 30.5 21.0 68 4.3 SW 6 6 3 3 - - 0.0
25/02:30am 27.6 30.6 21.2 68 4.3 SW 7 9 4 5 - - 0.0
25/02:00am 27.9 31.3 21.0 66 4.6 SSW 4 6 2 3 - - 0.0
25/01:30am 28.0 31.6 21.3 67 4.5 SSW 4 6 2 3 - - 0.0
25/01:00am 28.2 31.8 21.2 65 4.7 SW 4 7 2 4 - - 0.0
25/12:30am 28.4 32.2 20.9 64 5.0 SSW 2 4 1 2 - - 0.0
25/12:00am 28.4 32.3 21.2 65 4.8 S 2 4 1 2 - - 0.0
 
Date/Time
EST
Temp
°C
App
Temp
°C
Dew
Point
°C
Rel
Hum
%
Delta-T
°C
Wind Press
QNH
hPa
Press
MSL
hPa
Rain since
9am
mm
Dir  Spd
km/h
Gust
km/h
Spd
kts
Gust
kts
24/11:30pm 28.7 32.1 21.0 63 5.2 SSW 4 6 2 3 - - 0.0
24/11:00pm 28.9 31.8 20.6 61 5.5 SSW 6 7 3 4 - - 0.0
24/10:30pm 29.2 31.6 20.1 58 6.0 SSW 7 9 4 5 - - 0.0
24/10:00pm 29.3 32.0 20.2 58 6.0 SW 6 9 3 5 - - 0.0
24/09:30pm 29.4 31.4 20.0 57 6.2 SSW 9 13 5 7 - - 0.0
24/09:00pm 29.5 31.6 20.1 57 6.2 SSW 9 15 5 8 - - 0.0
24/08:30pm 29.9 31.5 19.9 55 6.6 SSW 11 15 6 8 - - 0.0
24/08:00pm 30.6 32.0 19.6 51 7.3 SW 11 19 6 10 - - 0.0
24/07:30pm 31.0 32.7 19.4 50 7.7 SSW 9 13 5 7 - - 0.0
24/07:00pm 31.6 32.5 19.2 47 8.2 S 13 24 7 13 - - 0.0
24/06:30pm 32.0 32.4 19.9 48 8.1 S 17 24 9 13 - - 0.0
24/06:00pm 31.9 32.0 19.9 49 8.0 S 19 32 10 17 - - 0.0
24/05:30pm 33.9 34.2 20.3 45 9.2 S 19 32 10 17 - - 0.0
24/05:00pm 34.4 35.1 19.6 41 9.9 S 15 20 8 11 - - 0.0
24/04:30pm 33.7 34.0 20.5 46 8.9 SSW 19 28 10 15 - - 0.0
24/04:00pm 34.3 34.2 19.5 41 9.9 S 19 30 10 16 - - 0.0
24/03:30pm 35.9 36.2 18.0 34 11.8 ENE 13 28 7 15 - - 0.0
24/03:00pm 35.4 35.7 18.0 35 11.4 ENE 13 22 7 12 - - 0.0
24/02:30pm 35.3 36.4 18.8 37 10.9 E 11 24 6 13 - - 0.0
24/02:00pm 35.0 36.2 19.0 39 10.6 ENE 11 24 6 13 - - 0.0
24/01:30pm 34.5 36.4 19.7 41 9.9 E 9 20 5 11 - - 0.0
24/01:00pm 34.5 36.2 20.1 43 9.7 E 11 20 6 11 - - 0.0
24/12:30pm 34.4 36.6 20.4 44 9.4 ESE 9 20 5 11 - - 0.0
24/12:00pm 33.8 35.0 19.8 43 9.4 E 13 24 7 13 - - 0.0
24/11:30am 33.4 33.8 19.8 44 9.1 ESE 17 24 9 13 - - 0.0
24/11:00am 32.7 34.3 19.9 46 8.5 E 11 22 6 12 - - 0.0
24/10:30am 31.8 34.2 20.1 50 7.8 ESE 7 20 4 11 - - 0.0
24/10:00am 31.6 35.0 21.7 55 6.7 SE 6 15 3 8 - - 0.0
24/09:30am 29.8 33.1 21.5 61 5.6 SSW 6 7 3 4 - - 0.0
24/09:00am 28.5 32.4 21.8 67 4.5 S 4 7 2 4 - - 1.8
24/08:30am 27.4 31.4 22.1 73 3.6 SSW 4 6 2 3 - - 1.8
24/08:00am 26.4 30.3 21.8 76 3.1 S 4 6 2 3 - - 1.8
24/07:30am 25.6 29.3 22.3 82 2.2 SSW 6 6 3 3 - - 1.8
24/07:00am 24.8 28.9 22.3 86 1.7 SSW 4 6 2 3 - - 1.8
24/06:30am 24.4 28.6 22.5 89 1.3 SSW 4 6 2 3 - - 1.8
24/06:00am 24.7 28.8 22.2 86 1.7 SW 4 6 2 3 - - 1.8
24/05:30am 24.6 28.7 22.3 87 1.6 SSW 4 7 2 4 - - 1.8
24/05:00am 25.0 28.5 22.1 84 2.0 SSW 7 11 4 6 - - 1.8
24/04:30am 25.1 29.0 22.6 86 1.7 SSW 6 9 3 5 - - 1.8
24/04:00am 25.1 28.3 22.4 85 1.8 SSW 9 13 5 7 - - 1.8
24/03:30am 25.1 28.9 22.4 85 1.8 SW 6 9 3 5 - - 1.8
24/03:00am 25.3 29.0 22.6 85 1.8 SSW 7 13 4 7 - - 1.8
24/02:30am 25.3 29.2 23.0 87 1.6 SSW 7 11 4 6 - - 1.8
24/02:00am 25.4 29.7 23.6 90 1.2 SSW 7 11 4 6 - - 1.8
24/01:30am 25.2 29.9 24.0 93 0.8 SSW 6 6 3 3 - - 1.8
24/01:00am 25.3 30.1 24.4 95 0.6 SSW 7 9 4 5 - - 1.8
24/12:30am 25.2 31.2 24.3 95 0.6 CALM 0 0 0 0 - - 1.8
24/12:00am 25.2 31.0 24.0 93 0.8 CALM 0 0 0 0 - - 1.8
 
Date/Time
EST
Temp
°C
App
Temp
°C
Dew
Point
°C
Rel
Hum
%
Delta-T
°C
Wind Press
QNH
hPa
Press
MSL
hPa
Rain since
9am
mm
Dir  Spd
km/h
Gust
km/h
Spd
kts
Gust
kts
23/11:30pm 25.3 31.3 24.3 94 0.7 CALM 0 0 0 0 - - 1.8
23/11:00pm 25.3 31.2 24.1 93 0.8 CALM 0 0 0 0 - - 1.8
23/10:30pm 25.4 31.5 24.4 94 0.7 CALM 0 0 0 0 - - 1.8
23/10:00pm 25.2 30.9 23.8 92 1.0 CALM 0 0 0 0 - - 1.8
23/09:30pm 25.2 30.8 23.6 91 1.1 CALM 0 0 0 0 - - 1.8
23/09:00pm 25.3 30.9 23.5 90 1.2 CALM 0 0 0 0 - - 1.8
23/08:30pm 25.3 30.9 23.5 90 1.2 CALM 0 0 0 0 - - 1.8
23/08:00pm 25.1 30.5 23.3 90 1.2 CALM 0 0 0 0 - - 1.8
23/07:30pm 25.2 30.4 22.9 87 1.6 CALM 0 0 0 0 - - 1.8
23/07:00pm 25.4 29.5 22.3 83 2.1 NNE 4 7 2 4 - - 1.8
23/06:30pm 25.8 27.4 20.8 74 3.3 ENE 13 22 7 12 - - 1.6
23/06:00pm 29.2 33.4 23.2 70 4.1 E 6 11 3 6 - - 0.0
23/05:30pm 29.2 33.6 23.4 71 4.0 NE 6 9 3 5 - - 0.0
23/05:00pm 29.1 32.3 23.1 70 4.1 ENE 11 19 6 10 - - 0.0
23/04:30pm 30.3 34.1 22.7 64 5.2 NE 7 13 4 7 - - 0.0
23/04:00pm 30.5 33.5 22.7 63 5.4 NE 11 20 6 11 - - 0.0
23/03:30pm 30.0 33.5 21.9 62 5.5 ESE 6 13 3 7 - - 0.0
23/03:00pm 29.8 34.9 23.3 68 4.5 E 2 6 1 3 - - 0.0
23/02:30pm 28.9 32.7 22.4 68 4.4 SE 6 9 3 5 - - 0.0
23/02:00pm 29.6 33.9 23.3 69 4.4 SE 6 9 3 5 - - 0.0
23/01:30pm 28.0 32.4 23.4 76 3.2 ESE 6 9 3 5 - - 0.0
23/01:00pm 27.5 32.3 23.5 79 2.8 E 4 7 2 4 - - 0.0
23/12:30pm 26.9 31.2 22.7 78 2.9 ESE 4 11 2 6 - - 0.0
23/12:00pm 26.5 31.4 23.0 81 2.4 ESE 2 6 1 3 - - 0.0
23/11:30am 26.0 31.3 23.1 84 2.0 CALM 0 2 0 1 - - 0.0
23/11:00am 25.3 29.4 23.0 87 1.6 NE 6 9 3 5 - - 0.0
23/10:30am 25.2 29.4 22.5 85 1.8 NNE 4 9 2 5 - - 0.0
23/10:00am 24.9 28.7 22.4 86 1.7 E 6 7 3 4 - - 0.0
23/09:30am 24.7 28.6 22.6 88 1.4 ENE 6 13 3 7 - - 0.0
23/09:00am 24.1 27.8 22.5 91 1.1 E 7 13 4 7 - - 11.4
23/08:30am 23.9 27.1 22.3 91 1.1 ENE 9 15 5 8 - - 11.2
23/08:00am 23.6 27.6 22.0 91 1.1 ESE 4 13 2 7 - - 11.2
23/07:30am 23.4 26.8 22.0 92 0.9 ENE 7 13 4 7 - - 11.2
23/07:00am 23.6 27.6 22.0 91 1.1 ENE 4 11 2 6 - - 11.2
23/06:30am 23.6 27.1 21.9 90 1.1 E 6 9 3 5 - - 11.2
23/06:00am 23.7 26.6 21.8 89 1.3 ESE 9 17 5 9 - - 11.2
23/05:30am 23.5 27.0 21.8 90 1.1 E 6 11 3 6 - - 11.2
23/05:00am 23.4 26.6 21.7 90 1.1 ENE 7 17 4 9 - - 11.2
23/04:30am 23.4 27.3 21.8 91 1.1 ENE 4 11 2 6 - - 11.2
23/04:00am 23.3 25.9 21.9 92 0.9 ESE 11 20 6 11 - - 11.0
23/03:30am 23.3 26.5 21.6 90 1.1 SSE 7 17 4 9 - - 11.0
23/03:00am 23.4 25.4 21.5 89 1.3 NE 13 20 7 11 - - 11.0
23/02:30am 23.4 26.3 21.1 87 1.5 ENE 7 15 4 8 - - 11.0
23/02:00am 23.7 25.9 21.2 86 1.7 E 11 22 6 12 - - 11.0
23/01:30am 23.9 26.2 21.4 86 1.7 ESE 11 19 6 10 - - 11.0
23/01:00am 24.3 26.9 22.0 87 1.5 ESE 11 20 6 11 - - 11.0
23/12:30am 24.5 28.5 22.0 86 1.7 E 4 9 2 5 - - 11.0
23/12:00am 24.2 29.4 22.8 92 1.0 CALM 0 0 0 0 - - 11.0
 
Date/Time
EST
Temp
°C
App
Temp
°C
Dew
Point
°C
Rel
Hum
%
Delta-T
°C
Wind Press
QNH
hPa
Press
MSL
hPa
Rain since
9am
mm
Dir  Spd
km/h
Gust
km/h
Spd
kts
Gust
kts
22/11:30pm 24.2 29.5 23.0 93 0.8 CALM 0 0 0 0 - - 11.0
22/11:00pm 24.4 29.6 22.8 91 1.1 CALM 0 0 0 0 - - 11.0
22/10:30pm 24.5 28.9 22.8 90 1.2 SSW 4 6 2 3 - - 11.0
22/10:00pm 24.6 29.7 22.7 89 1.3 CALM 0 0 0 0 - - 11.0
22/09:30pm 24.5 28.9 22.8 90 1.2 SSE 4 6 2 3 - - 11.0

Other Formats:

Comma delimited format used in spreadsheet applications
http://www.bom.gov.au/fwo/IDQ60801/IDQ60801.94348.axf

JavaScript Object Notation format (JSON) in row-major order
http://www.bom.gov.au/fwo/IDQ60801/IDQ60801.94348.json